createdAt,value
2022-10-05T00:01:26.692Z,10.52
2022-10-05T00:04:01.014Z,10.40
2022-10-05T00:06:31.266Z,10.63
2022-10-05T00:09:01.015Z,7.97
2022-10-05T00:11:28.909Z,15.73
2022-10-05T00:13:56.872Z,9.93
2022-10-05T00:16:26.153Z,12.75
2022-10-05T00:18:54.899Z,9.93
2022-10-05T00:21:24.923Z,17.73
2022-10-05T00:23:55.023Z,9.50
2022-10-05T00:26:24.715Z,8.20
2022-10-05T00:28:54.310Z,7.53
2022-10-05T00:31:23.838Z,9.60
2022-10-05T00:33:54.937Z,12.27
2022-10-05T00:36:22.876Z,11.32
2022-10-05T00:38:51.124Z,12.35
2022-10-05T00:41:24.117Z,8.05
2022-10-05T00:44:25.889Z,9.55
2022-10-05T00:46:58.299Z,11.35
2022-10-05T00:49:45.535Z,7.53
2022-10-05T00:52:23.592Z,9.65
2022-10-05T00:55:01.067Z,7.75
2022-10-05T00:57:40.300Z,17.55
2022-10-05T01:00:10.187Z,8.05
2022-10-05T01:02:52.480Z,9.55
2022-10-05T01:05:36.312Z,8.23
2022-10-05T01:08:15.493Z,12.02
2022-10-05T01:10:50.305Z,10.18
2022-10-05T01:13:26.931Z,6.93
2022-10-05T01:16:04.913Z,7.82
2022-10-05T01:18:41.661Z,14.00
2022-10-05T01:21:19.363Z,9.15
2022-10-05T01:24:18.428Z,11.07
2022-10-05T01:27:22.534Z,6.93
2022-10-05T01:30:00.735Z,11.35
2022-10-05T01:32:37.432Z,7.45
2022-10-05T01:35:14.319Z,7.90
2022-10-05T01:37:53.001Z,7.57
2022-10-05T01:40:34.038Z,9.30
2022-10-05T01:43:12.615Z,8.70
2022-10-05T01:45:54.719Z,6.03
2022-10-05T01:48:33.152Z,10.05
2022-10-05T01:51:12.429Z,7.50
2022-10-05T01:53:51.725Z,10.40
2022-10-05T01:56:25.809Z,11.75
2022-10-05T01:59:08.030Z,8.43
2022-10-05T02:01:44.567Z,7.00
2022-10-05T02:04:35.612Z,8.70
2022-10-05T02:07:11.022Z,6.65
2022-10-05T02:09:46.125Z,8.65
2022-10-05T02:12:18.845Z,8.52
2022-10-05T02:14:51.925Z,8.00
2022-10-05T02:17:27.104Z,9.95
2022-10-05T02:20:01.448Z,11.43
2022-10-05T02:22:34.045Z,8.77
2022-10-05T02:25:06.549Z,7.80
2022-10-05T02:27:39.771Z,7.82
2022-10-05T02:30:14.143Z,10.30
2022-10-05T02:32:52.570Z,7.82
2022-10-05T02:35:22.717Z,10.57
2022-10-05T02:38:02.433Z,9.35
2022-10-05T02:40:43.171Z,10.18
2022-10-05T02:43:22.294Z,6.93
2022-10-05T02:46:09.469Z,7.18
2022-10-05T02:48:48.068Z,9.18
2022-10-05T02:51:22.339Z,13.43
2022-10-05T02:54:04.241Z,10.90
2022-10-05T02:56:38.965Z,15.13
2022-10-05T02:59:14.339Z,9.60
2022-10-05T03:01:51.310Z,10.85
2022-10-05T03:04:32.155Z,11.75
2022-10-05T03:07:08.839Z,10.68
2022-10-05T03:09:42.445Z,9.25
2022-10-05T03:12:21.150Z,8.77
2022-10-05T03:15:00.773Z,10.00
2022-10-05T03:17:35.928Z,11.50
2022-10-05T03:20:16.894Z,8.27
2022-10-05T03:22:50.839Z,13.98
2022-10-05T03:25:37.149Z,11.43
2022-10-05T03:28:12.079Z,8.60
2022-10-05T03:30:48.957Z,10.05
2022-10-05T03:33:28.447Z,9.85
2022-10-05T03:36:07.248Z,8.40
2022-10-05T03:38:42.664Z,15.25
2022-10-05T03:41:21.354Z,16.90
2022-10-05T03:44:12.515Z,18.75
2022-10-05T03:46:53.141Z,7.88
2022-10-05T03:49:28.661Z,8.40
2022-10-05T03:52:09.718Z,11.02
2022-10-05T03:54:42.105Z,8.00
2022-10-05T03:57:14.832Z,8.15
2022-10-05T03:59:50.405Z,8.85
2022-10-05T04:02:25.550Z,18.23
2022-10-05T04:04:59.816Z,9.88
2022-10-05T04:07:38.085Z,12.25
2022-10-05T04:10:13.380Z,13.18
2022-10-05T04:12:46.623Z,11.77
2022-10-05T04:15:20.582Z,9.48
2022-10-05T04:17:52.431Z,11.55
2022-10-05T04:20:24.160Z,9.07
2022-10-05T04:23:02.516Z,10.13
2022-10-05T04:25:36.170Z,11.85
2022-10-05T04:28:11.266Z,15.45
2022-10-05T04:30:43.234Z,13.30
2022-10-05T04:33:13.737Z,14.48
2022-10-05T04:38:31.864Z,15.30
2022-10-05T04:41:17.755Z,13.15
2022-10-05T04:44:00.254Z,11.48
2022-10-05T04:46:41.487Z,11.00
2022-10-05T04:49:28.334Z,11.65
2022-10-05T04:52:05.253Z,10.82
2022-10-05T04:54:52.252Z,9.80
2022-10-05T04:57:26.563Z,10.30
2022-10-05T05:00:10.129Z,10.60
2022-10-05T05:03:05.408Z,8.60
2022-10-05T05:06:12.021Z,8.68
2022-10-05T05:08:58.142Z,12.00
2022-10-05T05:11:34.660Z,14.07
2022-10-05T05:14:24.175Z,11.30
2022-10-05T05:17:08.549Z,8.13
2022-10-05T05:19:51.765Z,9.70
2022-10-05T05:22:30.036Z,9.73
2022-10-05T05:25:30.171Z,10.88
2022-10-05T05:28:16.985Z,18.30
2022-10-05T05:30:49.743Z,15.82
2022-10-05T05:33:24.196Z,15.43
2022-10-05T05:36:23.389Z,11.68
2022-10-05T05:39:05.041Z,12.63
2022-10-05T05:41:38.742Z,9.68
2022-10-05T05:44:21.248Z,11.88
2022-10-05T05:47:05.405Z,11.73
2022-10-05T05:49:55.299Z,11.60
2022-10-05T05:52:31.524Z,10.30
2022-10-05T05:55:03.682Z,11.57
2022-10-05T05:57:38.581Z,10.18
2022-10-05T06:00:17.665Z,7.95
2022-10-05T06:02:57.001Z,9.85
2022-10-05T06:05:31.239Z,8.18
2022-10-05T06:08:07.176Z,11.38
2022-10-05T06:10:42.034Z,15.95
2022-10-05T06:13:18.374Z,14.00
2022-10-05T06:15:54.143Z,9.98
2022-10-05T06:18:24.058Z,8.00
2022-10-05T06:21:00.857Z,9.50
2022-10-05T06:23:34.258Z,9.85
2022-10-05T06:26:39.505Z,9.00
2022-10-05T06:29:13.587Z,12.98
2022-10-05T06:32:06.790Z,10.55
2022-10-05T06:34:53.259Z,16.30
2022-10-05T06:37:28.164Z,17.50
2022-10-05T06:40:06.206Z,13.73
2022-10-05T06:43:12.072Z,13.32
2022-10-05T06:46:08.678Z,10.52
2022-10-05T06:49:13.366Z,16.15
2022-10-05T06:51:57.659Z,10.20
2022-10-05T06:54:56.625Z,11.93
2022-10-05T06:58:01.208Z,10.30
2022-10-05T07:00:36.474Z,9.23
2022-10-05T07:03:12.557Z,9.82
2022-10-05T07:06:00.439Z,10.65
2022-10-05T07:08:41.476Z,11.18
2022-10-05T07:11:24.106Z,9.05
2022-10-05T07:14:10.034Z,9.68
2022-10-05T07:16:48.133Z,15.30
2022-10-05T07:19:30.318Z,12.70
2022-10-05T07:22:19.356Z,14.45
2022-10-05T07:24:58.104Z,15.00
2022-10-05T07:27:34.101Z,15.32
2022-10-05T07:30:06.870Z,13.13
2022-10-05T07:32:45.975Z,11.77
2022-10-05T07:35:39.106Z,15.30
2022-10-05T07:38:16.528Z,18.70
2022-10-05T07:40:50.109Z,12.27
2022-10-05T07:43:57.483Z,12.55
2022-10-05T07:46:27.940Z,9.75
2022-10-05T07:49:03.782Z,12.18
2022-10-05T07:51:40.930Z,11.95
2022-10-05T07:54:24.871Z,8.82
2022-10-05T07:56:59.734Z,11.60
2022-10-05T07:59:32.943Z,10.63
2022-10-05T08:02:13.271Z,13.68
2022-10-05T08:04:49.643Z,10.13
2022-10-05T08:07:18.485Z,11.27
2022-10-05T08:09:54.873Z,11.38
2022-10-05T08:12:31.657Z,10.77
2022-10-05T08:15:04.403Z,12.75
2022-10-05T08:17:42.498Z,9.20
2022-10-05T08:20:29.550Z,10.00
2022-10-05T08:23:03.283Z,9.52
2022-10-05T08:25:41.286Z,9.05
2022-10-05T08:28:18.535Z,10.30
2022-10-05T08:30:56.096Z,9.95
2022-10-05T08:33:28.557Z,10.32
2022-10-05T08:36:07.463Z,10.10
2022-10-05T08:38:36.095Z,10.43
2022-10-05T08:41:42.093Z,7.95
2022-10-05T08:44:56.158Z,12.75
2022-10-05T08:47:38.396Z,9.73
2022-10-05T08:50:20.529Z,8.75
2022-10-05T08:53:25.256Z,11.38
2022-10-05T08:56:02.503Z,7.03
2022-10-05T08:58:50.442Z,6.35
2022-10-05T09:01:34.272Z,17.38
2022-10-05T09:04:30.086Z,9.00
2022-10-05T09:07:15.405Z,7.45
2022-10-05T09:10:23.985Z,6.82
2022-10-05T09:13:25.850Z,8.10
2022-10-05T09:16:18.143Z,7.63
2022-10-05T09:19:16.202Z,10.68
2022-10-05T09:21:48.859Z,6.72
2022-10-05T09:24:27.712Z,6.45
2022-10-05T09:27:08.795Z,11.18
2022-10-05T09:30:09.196Z,6.80
2022-10-05T09:33:00.710Z,5.13
2022-10-05T09:35:58.116Z,9.10
2022-10-05T09:38:37.310Z,4.15
2022-10-05T09:41:31.203Z,6.78
2022-10-05T09:44:36.366Z,4.80
2022-10-05T09:47:21.873Z,6.32
2022-10-05T09:50:18.854Z,3.60
2022-10-05T09:53:06.859Z,3.80
2022-10-05T09:55:59.763Z,5.13
2022-10-05T09:59:07.507Z,6.15
2022-10-05T10:01:51.786Z,5.70
2022-10-05T10:04:30.490Z,3.72
2022-10-05T10:07:31.291Z,4.90
2022-10-05T10:10:29.357Z,5.15
2022-10-05T10:13:17.520Z,4.22
2022-10-05T10:16:13.565Z,5.45
2022-10-05T10:19:07.489Z,3.42
2022-10-05T10:21:54.867Z,2.85
2022-10-05T10:24:43.539Z,4.38
2022-10-05T10:27:27.601Z,4.15
2022-10-05T10:30:19.051Z,2.70
2022-10-05T10:33:26.442Z,2.88
2022-10-05T10:36:06.030Z,4.25
2022-10-05T10:38:41.382Z,2.03
2022-10-05T10:41:26.007Z,3.47
2022-10-05T10:44:37.115Z,3.63
2022-10-05T10:47:32.023Z,3.13
2022-10-05T10:50:28.320Z,3.53
2022-10-05T10:53:10.116Z,4.78
2022-10-05T10:55:54.010Z,5.22
2022-10-05T10:58:56.777Z,3.55
2022-10-05T11:01:31.946Z,5.03
2022-10-05T11:04:48.503Z,3.72
2022-10-05T11:07:57.103Z,3.45
2022-10-05T11:10:53.003Z,3.45
2022-10-05T11:13:43.841Z,4.00
2022-10-05T11:16:52.273Z,3.17
2022-10-05T11:20:05.030Z,3.25
2022-10-05T11:22:55.556Z,3.70
2022-10-05T11:25:48.016Z,5.93
2022-10-05T11:28:39.020Z,3.42
2022-10-05T11:31:48.134Z,5.88
2022-10-05T11:34:39.541Z,6.72
2022-10-05T11:37:25.585Z,5.10
2022-10-05T11:40:14.425Z,3.70
2022-10-05T11:43:32.304Z,4.38
2022-10-05T11:46:09.769Z,6.30
2022-10-05T11:49:02.040Z,6.97
2022-10-05T11:51:42.878Z,2.97
2022-10-05T11:54:26.813Z,2.40
2022-10-05T11:57:01.577Z,3.78
2022-10-05T11:59:35.727Z,5.25
2022-10-05T12:02:33.968Z,2.38
2022-10-05T12:05:12.131Z,4.22
2022-10-05T12:07:48.664Z,3.22
2022-10-05T12:10:29.034Z,5.50
2022-10-05T12:13:09.636Z,3.63
2022-10-05T12:15:44.665Z,2.60
2022-10-05T12:18:18.936Z,2.58
2022-10-05T12:20:54.884Z,3.05
2022-10-05T12:23:29.131Z,2.42
2022-10-05T12:26:01.864Z,5.10
2022-10-05T12:28:36.215Z,3.85
2022-10-05T12:31:14.240Z,3.70
2022-10-05T12:33:50.878Z,2.22
2022-10-05T12:36:31.890Z,3.28
2022-10-05T12:39:20.498Z,4.78
2022-10-05T12:41:54.204Z,2.95
2022-10-05T12:44:42.121Z,3.33
2022-10-05T12:47:19.983Z,3.10
2022-10-05T12:50:02.113Z,5.38
2022-10-05T12:52:57.005Z,6.82
2022-10-05T12:55:29.182Z,5.63
2022-10-05T12:58:06.788Z,3.88
2022-10-05T13:00:38.714Z,3.75
2022-10-05T13:03:18.979Z,4.28
2022-10-05T13:05:56.947Z,5.50
2022-10-05T13:08:39.000Z,5.18
2022-10-05T13:11:15.159Z,5.13
2022-10-05T13:13:56.596Z,2.88
2022-10-05T13:16:32.037Z,4.18
2022-10-05T13:19:21.211Z,3.65
2022-10-05T13:22:07.757Z,3.97
2022-10-05T13:24:43.196Z,3.65
2022-10-05T13:27:17.530Z,4.28
2022-10-05T13:29:54.425Z,4.10
2022-10-05T13:32:26.300Z,16.27
2022-10-05T13:35:01.693Z,2.75
2022-10-05T13:37:39.072Z,2.70
2022-10-05T13:40:18.662Z,4.07
2022-10-05T13:42:50.408Z,4.18
2022-10-05T13:45:22.554Z,4.68
2022-10-05T13:48:01.940Z,3.78
2022-10-05T13:50:33.615Z,2.85
2022-10-05T13:53:16.307Z,2.42
2022-10-05T13:55:48.546Z,3.55
2022-10-05T13:58:28.764Z,4.30
2022-10-05T14:01:00.713Z,2.05
2022-10-05T14:03:32.524Z,3.80
2022-10-05T14:06:03.793Z,4.50
2022-10-05T14:08:34.934Z,2.55
2022-10-05T14:11:22.065Z,4.50
2022-10-05T14:13:52.156Z,2.85
2022-10-05T14:16:22.681Z,3.60
2022-10-05T14:18:57.587Z,3.25
2022-10-05T14:21:27.028Z,1.63
2022-10-05T14:23:58.694Z,3.50
2022-10-05T14:26:35.956Z,3.13
2022-10-05T14:29:17.100Z,2.55
2022-10-05T14:31:52.370Z,3.03
2022-10-05T14:34:29.526Z,3.88
2022-10-05T14:36:59.843Z,2.13
2022-10-05T14:39:29.358Z,2.97
2022-10-05T14:42:13.618Z,3.20
2022-10-05T14:44:44.378Z,5.65
2022-10-05T14:47:23.787Z,3.08
2022-10-05T14:50:15.589Z,2.47
2022-10-05T14:52:51.839Z,2.42
2022-10-05T14:55:51.062Z,3.67
2022-10-05T14:58:51.769Z,2.72
2022-10-05T15:01:27.338Z,5.07
2022-10-05T15:04:06.867Z,3.08
2022-10-05T15:06:40.780Z,1.90
2022-10-05T15:09:51.057Z,3.42
2022-10-05T15:12:26.066Z,5.03
2022-10-05T15:15:02.697Z,7.40
2022-10-05T15:17:37.507Z,2.95
2022-10-05T15:20:18.427Z,3.83
2022-10-05T15:22:53.626Z,2.42
2022-10-05T15:25:27.838Z,2.58
2022-10-05T15:28:07.394Z,4.93
2022-10-05T15:30:41.141Z,5.15
2022-10-05T15:33:18.150Z,4.88
2022-10-05T15:35:55.802Z,3.08
2022-10-05T15:38:26.416Z,2.97
2022-10-05T15:41:04.444Z,7.85
2022-10-05T15:43:46.985Z,4.30
2022-10-05T15:46:23.155Z,2.05
2022-10-05T15:49:02.214Z,2.42
2022-10-05T15:51:40.637Z,6.40
2022-10-05T15:54:36.864Z,2.85
2022-10-05T15:57:11.982Z,4.43
2022-10-05T15:59:53.199Z,5.97
2022-10-05T16:02:28.932Z,4.90
2022-10-05T16:05:08.537Z,4.22
2022-10-05T16:08:01.930Z,5.77
2022-10-05T16:10:34.849Z,9.68
2022-10-05T16:13:20.165Z,5.45
2022-10-05T16:15:57.008Z,2.88
2022-10-05T16:18:42.772Z,4.30
2022-10-05T16:21:22.787Z,2.90
2022-10-05T16:24:05.826Z,4.75
2022-10-05T16:26:46.928Z,2.42
2022-10-05T16:29:23.908Z,4.15
2022-10-05T16:31:58.272Z,2.50
2022-10-05T16:34:38.979Z,4.75
2022-10-05T16:37:12.043Z,6.18
2022-10-05T16:39:51.243Z,5.18
2022-10-05T16:42:30.606Z,5.80
2022-10-05T16:45:06.877Z,3.95
2022-10-05T16:47:44.011Z,8.00
2022-10-05T16:50:22.553Z,5.60
2022-10-05T16:52:56.983Z,6.07
2022-10-05T16:55:33.277Z,7.10
2022-10-05T16:58:07.072Z,5.18
2022-10-05T17:00:46.759Z,5.38
2022-10-05T17:03:28.378Z,10.80
2022-10-05T17:06:33.525Z,7.30
2022-10-05T17:09:30.874Z,9.73
2022-10-05T17:12:19.046Z,9.20
2022-10-05T17:15:00.359Z,10.73
2022-10-05T17:17:38.566Z,9.35
2022-10-05T17:20:23.622Z,8.95
2022-10-05T17:22:56.256Z,8.52
2022-10-05T17:25:35.315Z,7.70
2022-10-05T17:28:22.884Z,7.40
2022-10-05T17:31:07.802Z,8.60
2022-10-05T17:33:55.927Z,13.23
2022-10-05T17:36:39.118Z,8.57
2022-10-05T17:39:16.934Z,8.77
2022-10-05T17:41:45.488Z,8.50
2022-10-05T17:44:26.167Z,8.07
2022-10-05T17:46:56.611Z,13.57
2022-10-05T17:52:18.339Z,9.77
2022-10-05T17:57:43.224Z,11.30
2022-10-05T18:00:43.846Z,8.40
2022-10-05T18:06:37.798Z,8.90
2022-10-05T18:09:29.061Z,9.68
2022-10-05T18:12:12.540Z,6.22
2022-10-05T18:15:00.246Z,8.93
2022-10-05T18:17:45.125Z,7.03
2022-10-05T18:20:21.075Z,8.32
2022-10-05T18:22:51.018Z,18.05
2022-10-05T18:25:28.387Z,9.27
2022-10-05T18:28:09.901Z,8.30
2022-10-05T18:30:55.068Z,8.23
2022-10-05T18:33:49.189Z,7.80
2022-10-05T18:36:37.705Z,6.90
2022-10-05T18:39:18.787Z,6.97
2022-10-05T18:44:32.771Z,7.80
2022-10-05T18:47:07.243Z,8.27
2022-10-05T18:49:54.182Z,8.85
2022-10-05T18:52:32.090Z,7.38
2022-10-05T18:55:10.142Z,9.52
2022-10-05T18:57:56.387Z,9.38
2022-10-05T19:00:32.177Z,8.52
2022-10-05T19:03:03.521Z,7.25
2022-10-05T19:05:48.336Z,7.70
2022-10-05T19:08:28.138Z,7.40
2022-10-05T19:11:01.111Z,10.03
2022-10-05T19:13:41.529Z,8.18
2022-10-05T19:16:28.203Z,8.63
2022-10-05T19:19:10.415Z,7.57
2022-10-05T19:21:47.361Z,6.53
2022-10-05T19:24:40.650Z,9.07
2022-10-05T19:27:15.451Z,8.05
2022-10-05T19:30:01.503Z,8.95
2022-10-05T19:32:40.217Z,12.07
2022-10-05T19:35:22.762Z,6.18
2022-10-05T19:38:03.138Z,9.63
2022-10-05T19:40:39.791Z,6.05
2022-10-05T19:43:25.376Z,6.22
2022-10-05T19:46:04.888Z,13.13
2022-10-05T19:48:45.450Z,7.38
2022-10-05T19:53:46.998Z,8.35
2022-10-05T19:56:20.595Z,7.90
2022-10-05T19:58:49.689Z,8.82
2022-10-05T20:01:25.719Z,7.57
2022-10-05T20:03:58.018Z,5.00
2022-10-05T20:06:26.954Z,7.07
2022-10-05T20:08:59.986Z,6.63
2022-10-05T20:11:29.256Z,8.40
2022-10-05T20:14:20.498Z,5.35
2022-10-05T20:17:05.895Z,6.43
2022-10-05T20:19:57.066Z,5.50
2022-10-05T20:22:32.755Z,5.88
2022-10-05T20:25:02.518Z,5.10
2022-10-05T20:27:45.002Z,5.72
2022-10-05T20:30:15.303Z,5.30
2022-10-05T20:32:43.677Z,7.35
2022-10-05T20:35:13.027Z,5.25
2022-10-05T20:37:41.338Z,7.35
2022-10-05T20:40:10.458Z,4.45
2022-10-05T20:42:38.476Z,5.07
2022-10-05T20:45:07.351Z,8.27
2022-10-05T20:47:37.599Z,4.95
2022-10-05T20:50:08.966Z,6.20
2022-10-05T20:52:38.666Z,4.28
2022-10-05T20:55:08.924Z,8.38
2022-10-05T20:57:41.421Z,7.22
2022-10-05T21:00:10.776Z,5.30
2022-10-05T21:02:39.492Z,6.68
2022-10-05T21:05:08.558Z,8.07
2022-10-05T21:07:37.832Z,4.60
2022-10-05T21:10:06.764Z,5.35
2022-10-05T21:12:34.746Z,7.45
2022-10-05T21:15:04.654Z,6.65
2022-10-05T21:17:34.639Z,4.60
2022-10-05T21:20:02.756Z,8.32
2022-10-05T21:22:30.612Z,4.75
2022-10-05T21:25:00.341Z,5.80
2022-10-05T21:27:28.792Z,4.70
2022-10-05T21:29:56.679Z,5.75
2022-10-05T21:32:24.510Z,3.83
2022-10-05T21:34:55.136Z,4.15
2022-10-05T21:37:23.255Z,7.32
2022-10-05T21:39:51.376Z,6.32
2022-10-05T21:42:20.641Z,4.38
2022-10-05T21:44:48.526Z,4.38
2022-10-05T21:47:16.421Z,5.00
2022-10-05T21:49:44.309Z,3.25
2022-10-05T21:52:12.148Z,5.38
2022-10-05T21:54:40.091Z,4.88
2022-10-05T21:57:08.078Z,4.18
2022-10-05T21:59:37.480Z,5.65
2022-10-05T22:02:05.380Z,7.22
2022-10-05T22:04:33.248Z,5.72
2022-10-05T22:07:01.198Z,3.80
2022-10-05T22:09:29.882Z,5.32
2022-10-05T22:11:58.360Z,4.63
2022-10-05T22:14:26.425Z,10.65
2022-10-05T22:16:55.658Z,3.92
2022-10-05T22:19:23.553Z,6.57
2022-10-05T22:21:51.397Z,4.55
2022-10-05T22:24:19.306Z,4.70
2022-10-05T22:26:51.400Z,4.82
2022-10-05T22:29:20.726Z,6.00
2022-10-05T22:31:49.186Z,3.50
2022-10-05T22:34:19.136Z,4.43
2022-10-05T22:36:47.516Z,3.13
2022-10-05T22:39:15.723Z,4.28
2022-10-05T22:41:43.718Z,6.43
2022-10-05T22:44:11.738Z,7.25
2022-10-05T22:46:39.792Z,5.53
2022-10-05T22:49:07.806Z,4.13
2022-10-05T22:51:37.038Z,3.92
2022-10-05T22:54:05.095Z,5.35
2022-10-05T22:56:32.985Z,6.35
2022-10-05T22:59:00.781Z,3.80
2022-10-05T23:01:28.676Z,3.15
2022-10-05T23:03:57.310Z,4.20
2022-10-05T23:06:26.595Z,4.70
2022-10-05T23:08:56.301Z,3.15
2022-10-05T23:11:26.006Z,4.30
2022-10-05T23:13:56.822Z,3.45
2022-10-05T23:16:27.229Z,4.32
2022-10-05T23:18:55.731Z,5.07
2022-10-05T23:21:25.540Z,3.60
2022-10-05T23:23:54.943Z,4.97
2022-10-05T23:26:25.027Z,4.72
2022-10-05T23:28:53.019Z,6.28
2022-10-05T23:31:22.673Z,3.92
2022-10-05T23:33:50.824Z,6.67
2022-10-05T23:36:20.706Z,7.03
2022-10-05T23:38:48.890Z,4.40
2022-10-05T23:41:19.623Z,5.60
2022-10-05T23:43:47.767Z,6.43
2022-10-05T23:46:16.224Z,4.22
2022-10-05T23:48:44.616Z,4.55
2022-10-05T23:51:14.214Z,5.72
2022-10-05T23:53:42.064Z,4.73
2022-10-05T23:56:09.893Z,3.63
2022-10-05T23:58:39.135Z,3.38
